Etusivu
METAR-TAF:

METAR-TAF

Lentoasemat :

Irkutskin lentoasema

Irkutsk, Venäjä

Leveyspiiri: 52-16N, Pituuspiiri: 104-19E, korkeus merenpinnasta: 513 m

Tämänhetkinen sää

Tämä raportti tehtiin 18 minuuttia sitten, kello 03.30 UTC
Tuuli 4 kn idästä
Lämpötila -16°C
Kosteus 84%
Ilmanpaine 1024 hPa
Näkyvyys 10 km tai enemmän
Hajanaisia pilviä 600 ft:n korkeudessa

METAR: UIII 210330Z 08002MPS 9999 SCT006 M16/M18 Q1024 R12/820350 NOSIG RMK QBB200 QFE725/0967

Aika: 11:48 (03:48 UTC)

Sääennuste

Tämä raportti tehtiin 1 tunti ja 48 minuuttia sitten, kello 02.00 UTC
Ennuste voimassa 21. päivästä klo 03 UTC - 22. päivään klo 03 UTC
Tuuli 6 kn etelästä/kaakosta
Näkyvyys 10 km tai enemmän
Hajanaisia pilviä 1500 ft:n korkeudessa

TAF: UIII 210200Z 2103/2203 16003MPS 9999 SCT015

Säähavainnot ja -ennusteet yli 4000 lentoasemalta (METAR- ja TAF-raportit).

Käytössä olevat sääasemat on merkitty karttaan keltaisilla ja punaisilla pisteillä.

Aseta hiiri pisteen päälle nähdäksesi sääaseman nimen.

Klikkaa sitten nähdäksesi säähavainnot ja -ennusteet.

Kartan vaihtaminen: klikkaa mustalla rastilla varustettuja vihreitä pisteitä, niin voit zoomata sisään; viivalla varustettua vihreää pistettä, niin voit zoomata ulos tai vihreitä nuolia, niin pääset viereisille kartoille.


METAR-TAF: